createdAt,value
2019-03-05T00:00:17.889Z,63.42
2019-03-05T00:01:17.873Z,63.21
2019-03-05T00:02:17.906Z,63.42
2019-03-05T00:03:17.851Z,63.72
2019-03-05T00:04:17.840Z,63.93
2019-03-05T00:05:17.831Z,63.72
2019-03-05T00:06:17.819Z,63.42
2019-03-05T00:07:17.811Z,63.21
2019-03-05T00:08:17.814Z,63.72
2019-03-05T00:09:17.791Z,63.42
2019-03-05T00:10:17.781Z,63.31
2019-03-05T00:11:17.766Z,63.42
2019-03-05T00:12:17.763Z,62.90
2019-03-05T00:13:17.756Z,63.72
2019-03-05T00:14:18.801Z,63.82
2019-03-05T00:15:17.735Z,63.93
2019-03-05T00:16:17.715Z,63.65
2019-03-05T00:17:17.724Z,63.85
2019-03-05T00:18:17.693Z,63.96
2019-03-05T00:19:17.688Z,63.34
2019-03-05T00:20:17.677Z,63.34
2019-03-05T00:21:17.674Z,63.31
2019-03-05T00:22:17.650Z,63.51
2019-03-05T00:23:17.645Z,63.00
2019-03-05T00:24:17.630Z,62.79
2019-03-05T00:25:17.617Z,63.31
2019-03-05T00:26:17.612Z,63.10
2019-03-05T00:27:17.590Z,63.18
2019-03-05T00:28:17.587Z,64.03
2019-03-05T00:29:17.575Z,63.49
2019-03-05T00:30:17.597Z,62.38
2019-03-05T00:31:17.552Z,62.59
2019-03-05T00:32:17.547Z,62.59
2019-03-05T00:33:17.525Z,63.07
2019-03-05T00:34:17.520Z,63.72
2019-03-05T00:35:17.510Z,63.82
2019-03-05T00:36:17.501Z,63.00
2019-03-05T00:37:17.490Z,63.90
2019-03-05T00:38:17.477Z,63.28
2019-03-05T00:39:17.465Z,62.87
2019-03-05T00:40:17.447Z,63.59
2019-03-05T00:41:17.443Z,62.97
2019-03-05T00:42:17.438Z,62.66
2019-03-05T00:43:17.431Z,62.46
2019-03-05T00:44:17.404Z,62.55
2019-03-05T00:45:17.401Z,62.55
2019-03-05T00:46:17.381Z,62.35
2019-03-05T00:47:17.384Z,62.87
2019-03-05T00:48:17.391Z,63.59
2019-03-05T00:49:17.350Z,62.87
2019-03-05T00:50:17.342Z,62.97
2019-03-05T00:51:24.926Z,62.46
2019-03-05T00:52:18.315Z,62.46
2019-03-05T00:53:17.323Z,62.46
2019-03-05T00:54:17.301Z,63.39
2019-03-05T00:55:17.288Z,62.66
2019-03-05T00:56:17.274Z,62.35
2019-03-05T00:57:17.259Z,62.46
2019-03-05T00:58:17.256Z,62.66
2019-03-05T00:59:17.246Z,62.55
2019-03-05T01:00:17.231Z,62.66
2019-03-05T01:01:17.219Z,62.04
2019-03-05T01:02:17.204Z,61.83
2019-03-05T01:03:17.207Z,61.80
2019-03-05T01:04:17.183Z,62.35
2019-03-05T01:05:17.179Z,61.50
2019-03-05T01:06:17.162Z,62.15
2019-03-05T01:07:17.165Z,61.83
2019-03-05T01:08:19.573Z,61.73
2019-03-05T01:09:17.135Z,61.60
2019-03-05T01:10:17.125Z,61.50
2019-03-05T01:11:17.111Z,61.60
2019-03-05T01:12:17.106Z,61.73
2019-03-05T01:13:17.087Z,62.04
2019-03-05T01:14:17.094Z,62.04
2019-03-05T01:15:17.111Z,62.55
2019-03-05T01:16:17.074Z,62.48
2019-03-05T01:17:17.046Z,62.69
2019-03-05T01:18:17.041Z,62.59
2019-03-05T01:19:17.028Z,62.76
2019-03-05T01:20:17.012Z,62.46
2019-03-05T01:21:17.007Z,63.21
2019-03-05T01:22:16.998Z,63.31
2019-03-05T01:23:16.987Z,63.82
2019-03-05T01:24:16.985Z,63.62
2019-03-05T01:25:16.960Z,64.06
2019-03-05T01:26:16.956Z,64.27
2019-03-05T01:27:16.947Z,64.58
2019-03-05T01:28:16.935Z,65.02
2019-03-05T01:29:16.931Z,65.12
2019-03-05T01:30:16.916Z,65.64
2019-03-05T01:31:16.902Z,65.75
2019-03-05T01:32:16.883Z,66.26
2019-03-05T01:33:16.874Z,66.26
2019-03-05T01:34:16.884Z,66.16
2019-03-05T01:35:16.847Z,66.67
2019-03-05T01:36:16.856Z,66.60
2019-03-05T01:37:16.835Z,66.78
2019-03-05T01:38:16.829Z,66.67
2019-03-05T01:39:16.802Z,67.02
2019-03-05T01:40:16.801Z,66.88
2019-03-05T01:41:16.785Z,66.78
2019-03-05T01:42:16.797Z,67.02
2019-03-05T01:43:16.763Z,67.22
2019-03-05T01:44:16.751Z,67.33
2019-03-05T01:45:16.753Z,67.54
2019-03-05T01:46:16.735Z,67.74
2019-03-05T01:47:16.740Z,67.67
2019-03-05T01:48:16.716Z,68.19
2019-03-05T01:49:16.692Z,68.60
2019-03-05T01:50:16.696Z,68.19
2019-03-05T01:51:16.675Z,68.60
2019-03-05T01:52:16.726Z,68.60
2019-03-05T01:53:16.661Z,68.49
2019-03-05T01:54:16.642Z,68.08
2019-03-05T01:55:16.631Z,68.60
2019-03-05T01:56:16.619Z,68.80
2019-03-05T01:57:16.617Z,68.80
2019-03-05T01:58:16.623Z,68.19
2019-03-05T01:59:16.601Z,68.49
2019-03-05T02:00:16.571Z,68.40
2019-03-05T02:01:16.570Z,68.19
2019-03-05T02:02:16.608Z,68.80
2019-03-05T02:03:16.559Z,68.60
2019-03-05T02:04:16.558Z,68.70
2019-03-05T02:05:16.529Z,68.49
2019-03-05T02:06:16.507Z,69.12
2019-03-05T02:07:16.498Z,68.60
2019-03-05T02:08:16.489Z,68.80
2019-03-05T02:09:16.474Z,69.01
2019-03-05T02:10:16.469Z,68.91
2019-03-05T02:11:16.455Z,69.67
2019-03-05T02:12:16.438Z,69.67
2019-03-05T02:13:16.432Z,69.87
2019-03-05T02:14:16.415Z,69.87
2019-03-05T02:15:16.418Z,69.64
2019-03-05T02:16:16.399Z,69.64
2019-03-05T02:17:16.393Z,69.04
2019-03-05T02:18:16.371Z,70.08
2019-03-05T02:19:16.369Z,69.53
2019-03-05T02:20:16.401Z,70.29
2019-03-05T02:21:16.344Z,70.39
2019-03-05T02:22:16.335Z,70.70
2019-03-05T02:23:16.326Z,70.50
2019-03-05T02:24:16.305Z,70.08
2019-03-05T02:25:16.306Z,70.29
2019-03-05T02:26:16.296Z,70.81
2019-03-05T02:27:16.292Z,71.04
2019-03-05T02:28:16.300Z,70.84
2019-03-05T02:29:16.261Z,70.91
2019-03-05T02:30:16.239Z,70.91
2019-03-05T02:31:16.265Z,70.81
2019-03-05T02:32:16.223Z,70.53
2019-03-05T02:33:16.208Z,70.42
2019-03-05T02:34:16.196Z,70.63
2019-03-05T02:35:16.197Z,70.73
2019-03-05T02:36:16.182Z,70.39
2019-03-05T02:37:16.170Z,70.91
2019-03-05T02:38:16.222Z,71.12
2019-03-05T02:39:16.156Z,69.87
2019-03-05T02:40:16.137Z,70.39
2019-03-05T02:41:16.129Z,70.50
2019-03-05T02:42:16.123Z,70.91
2019-03-05T02:43:16.099Z,70.60
2019-03-05T02:44:16.096Z,70.81
2019-03-05T02:45:16.085Z,70.91
2019-03-05T02:46:16.071Z,70.81
2019-03-05T02:47:16.055Z,70.81
2019-03-05T02:48:16.056Z,70.91
2019-03-05T02:49:16.040Z,71.01
2019-03-05T02:50:16.026Z,70.81
2019-03-05T02:51:16.022Z,70.60
2019-03-05T02:52:16.059Z,70.81
2019-03-05T02:53:15.986Z,70.81
2019-03-05T02:54:15.983Z,71.01
2019-03-05T02:55:15.969Z,70.29
2019-03-05T02:56:15.971Z,70.50
2019-03-05T02:57:15.943Z,70.81
2019-03-05T02:58:15.956Z,70.39
2019-03-05T02:59:15.926Z,70.70
2019-03-05T03:00:15.926Z,71.33
2019-03-05T03:01:15.910Z,70.94
2019-03-05T03:02:15.887Z,71.01
2019-03-05T03:03:15.885Z,71.12
2019-03-05T03:04:15.885Z,70.91
2019-03-05T03:05:15.859Z,70.50
2019-03-05T03:06:15.848Z,70.29
2019-03-05T03:07:15.833Z,70.77
2019-03-05T03:08:15.954Z,70.87
2019-03-05T03:09:15.851Z,70.47
2019-03-05T03:10:15.810Z,70.77
2019-03-05T03:11:15.806Z,71.08
2019-03-05T03:12:15.787Z,71.08
2019-03-05T03:13:15.774Z,70.47
2019-03-05T03:14:15.760Z,70.77
2019-03-05T03:15:15.767Z,70.26
2019-03-05T03:16:15.735Z,70.67
2019-03-05T03:17:15.726Z,70.87
2019-03-05T03:18:15.721Z,70.64
2019-03-05T03:19:15.707Z,70.67
2019-03-05T03:20:15.702Z,70.98
2019-03-05T03:21:15.688Z,70.36
2019-03-05T03:22:15.674Z,70.64
2019-03-05T03:23:15.660Z,70.74
2019-03-05T03:24:15.647Z,70.84
2019-03-05T03:25:15.689Z,70.29
2019-03-05T03:26:15.626Z,70.19
2019-03-05T03:27:15.612Z,69.78
2019-03-05T03:28:15.602Z,69.57
2019-03-05T03:29:15.595Z,69.78
2019-03-05T03:30:15.611Z,69.57
2019-03-05T03:31:15.585Z,69.88
2019-03-05T03:32:15.562Z,69.78
2019-03-05T03:33:15.551Z,70.50
2019-03-05T03:34:15.547Z,70.29
2019-03-05T03:35:15.531Z,70.47
2019-03-05T03:36:15.527Z,70.47
2019-03-05T03:37:15.512Z,70.29
2019-03-05T03:38:15.497Z,70.09
2019-03-05T03:39:15.487Z,70.40
2019-03-05T03:40:15.483Z,70.29
2019-03-05T03:41:15.469Z,70.50
2019-03-05T03:42:15.468Z,70.09
2019-03-05T03:43:15.439Z,70.19
2019-03-05T03:44:15.428Z,70.47
2019-03-05T03:45:15.416Z,70.37
2019-03-05T03:46:15.442Z,69.85
2019-03-05T03:47:15.392Z,69.85
2019-03-05T03:48:15.391Z,69.33
2019-03-05T03:49:15.374Z,69.02
2019-03-05T03:50:15.371Z,69.74
2019-03-05T03:51:15.349Z,70.16
2019-03-05T03:52:15.376Z,69.54
2019-03-05T03:53:15.333Z,69.51
2019-03-05T03:54:15.322Z,69.33
2019-03-05T03:55:15.314Z,69.54
2019-03-05T03:56:15.303Z,70.12
2019-03-05T03:57:15.296Z,69.74
2019-03-05T03:58:15.287Z,69.54
2019-03-05T03:59:15.267Z,69.74
2019-03-05T04:00:15.253Z,69.23
2019-03-05T04:01:15.246Z,69.64
2019-03-05T04:02:15.236Z,69.92
2019-03-05T04:03:15.245Z,69.95
2019-03-05T04:04:15.208Z,70.33
2019-03-05T04:05:15.202Z,69.82
2019-03-05T04:06:15.192Z,69.71
2019-03-05T04:07:15.180Z,70.12
2019-03-05T04:08:15.165Z,69.95
2019-03-05T04:09:15.166Z,68.88
2019-03-05T04:10:15.163Z,69.71
2019-03-05T04:11:15.141Z,69.71
2019-03-05T04:12:15.128Z,69.20
2019-03-05T04:13:15.116Z,70.12
2019-03-05T04:14:15.121Z,69.30
2019-03-05T04:15:15.108Z,70.03
2019-03-05T04:16:15.084Z,69.51
2019-03-05T04:17:15.071Z,69.71
2019-03-05T04:18:15.063Z,70.12
2019-03-05T04:19:15.066Z,70.23
2019-03-05T04:20:15.039Z,70.33
2019-03-05T04:21:15.031Z,70.12
2019-03-05T04:22:15.013Z,70.12
2019-03-05T04:23:15.001Z,70.33
2019-03-05T04:24:15.006Z,70.12
2019-03-05T04:25:14.990Z,70.23
2019-03-05T04:26:14.973Z,70.64
2019-03-05T04:27:14.962Z,70.33
2019-03-05T04:28:14.953Z,70.85
2019-03-05T04:29:14.956Z,70.64
2019-03-05T04:30:14.926Z,70.33
2019-03-05T04:31:14.917Z,70.43
2019-03-05T04:32:14.905Z,70.64
2019-03-05T04:33:14.893Z,70.75
2019-03-05T04:34:14.886Z,71.16
2019-03-05T04:35:14.876Z,71.06
2019-03-05T04:36:14.869Z,70.85
2019-03-05T04:37:14.855Z,71.47
2019-03-05T04:38:14.843Z,71.57
2019-03-05T04:39:14.822Z,71.57
2019-03-05T04:40:14.819Z,71.47
2019-03-05T04:41:14.811Z,71.06
2019-03-05T04:42:14.790Z,71.57
2019-03-05T04:43:14.780Z,71.37
2019-03-05T04:44:14.772Z,71.37
2019-03-05T04:45:14.756Z,71.47
2019-03-05T04:46:14.762Z,71.37
2019-03-05T04:47:14.740Z,70.95
2019-03-05T04:48:14.728Z,71.40
2019-03-05T04:49:14.718Z,71.98
2019-03-05T04:50:14.702Z,71.78
2019-03-05T04:51:14.708Z,71.98
2019-03-05T04:52:14.688Z,72.19
2019-03-05T04:53:14.676Z,71.88
2019-03-05T04:54:14.663Z,71.67
2019-03-05T04:55:14.656Z,71.37
2019-03-05T04:56:14.646Z,71.78
2019-03-05T04:57:14.635Z,72.09
2019-03-05T04:58:14.616Z,71.98
2019-03-05T04:59:14.609Z,72.09
2019-03-05T05:00:14.596Z,72.09
2019-03-05T05:01:14.623Z,73.12
2019-03-05T05:02:14.610Z,72.40
2019-03-05T05:03:14.569Z,72.81
2019-03-05T05:04:14.556Z,73.02
2019-03-05T05:05:14.549Z,73.16
2019-03-05T05:06:14.535Z,73.16
2019-03-05T05:07:14.531Z,73.26
2019-03-05T05:08:14.508Z,73.16
2019-03-05T05:09:14.517Z,73.36
2019-03-05T05:10:14.492Z,73.26
2019-03-05T05:11:14.483Z,72.91
2019-03-05T05:12:14.480Z,73.33
2019-03-05T05:13:14.453Z,73.02
2019-03-05T05:14:14.448Z,72.95
2019-03-05T05:15:14.438Z,73.02
2019-03-05T05:16:14.421Z,73.16
2019-03-05T05:17:14.422Z,73.16
2019-03-05T05:18:14.427Z,72.91
2019-03-05T05:19:14.397Z,72.91
2019-03-05T05:20:14.409Z,72.95
2019-03-05T05:21:14.373Z,72.81
2019-03-05T05:22:14.356Z,72.91
2019-03-05T05:23:14.346Z,72.91
2019-03-05T05:24:14.348Z,72.91
2019-03-05T05:25:14.335Z,72.81
2019-03-05T05:26:14.319Z,72.30
2019-03-05T05:27:14.308Z,73.02
2019-03-05T05:28:14.298Z,73.12
2019-03-05T05:29:14.294Z,71.78
2019-03-05T05:30:14.286Z,72.30
2019-03-05T05:31:14.263Z,71.78
2019-03-05T05:32:14.255Z,71.78
2019-03-05T05:33:14.239Z,71.98
2019-03-05T05:34:14.240Z,71.78
2019-03-05T05:35:14.219Z,72.30
2019-03-05T05:36:14.225Z,72.40
2019-03-05T05:37:14.211Z,72.19
2019-03-05T05:38:14.200Z,73.02
2019-03-05T05:39:14.181Z,72.19
2019-03-05T05:40:14.181Z,72.19
2019-03-05T05:41:14.162Z,72.40
2019-03-05T05:42:14.149Z,72.40
2019-03-05T05:43:14.131Z,72.19
2019-03-05T05:44:14.123Z,72.09
2019-03-05T05:45:14.107Z,72.81
2019-03-05T05:46:14.095Z,73.12
2019-03-05T05:47:14.088Z,72.30
2019-03-05T05:48:14.081Z,72.09
2019-03-05T05:49:14.071Z,71.78
2019-03-05T05:50:14.060Z,70.95
2019-03-05T05:51:14.046Z,71.57
2019-03-05T05:52:14.048Z,71.47
2019-03-05T05:53:14.028Z,71.67
2019-03-05T05:54:14.010Z,71.67
2019-03-05T05:55:14.006Z,70.82
2019-03-05T05:56:13.996Z,70.72
2019-03-05T05:57:13.983Z,70.75
2019-03-05T05:58:13.971Z,70.33
2019-03-05T05:59:13.962Z,70.43
2019-03-05T06:00:13.944Z,70.64
2019-03-05T06:01:13.936Z,70.75
2019-03-05T06:02:13.923Z,70.51
2019-03-05T06:03:13.955Z,70.40
2019-03-05T06:04:13.907Z,70.64
2019-03-05T06:05:13.898Z,70.23
2019-03-05T06:06:13.879Z,71.12
2019-03-05T06:07:13.874Z,70.40
2019-03-05T06:08:13.858Z,70.51
2019-03-05T06:09:13.880Z,70.23
2019-03-05T06:10:13.846Z,70.20
2019-03-05T06:11:13.837Z,71.64
2019-03-05T06:12:13.823Z,70.85
2019-03-05T06:13:13.814Z,71.12
2019-03-05T06:14:14.452Z,70.95
2019-03-05T06:15:13.784Z,71.78
2019-03-05T06:16:13.784Z,70.72
2019-03-05T06:17:13.779Z,71.16
2019-03-05T06:18:13.755Z,71.06
2019-03-05T06:19:13.907Z,70.33
2019-03-05T06:20:13.728Z,70.51
2019-03-05T06:21:13.724Z,70.30
2019-03-05T06:22:13.723Z,71.26
2019-03-05T06:23:13.700Z,70.40
2019-03-05T06:24:13.685Z,70.43
2019-03-05T06:25:13.682Z,70.40
2019-03-05T06:26:13.671Z,70.33
2019-03-05T06:27:13.657Z,71.26
2019-03-05T06:28:13.653Z,70.75
2019-03-05T06:29:13.634Z,71.47
2019-03-05T06:30:13.631Z,71.16
2019-03-05T06:31:13.626Z,71.26
2019-03-05T06:32:13.603Z,71.57
2019-03-05T06:33:13.596Z,71.47
2019-03-05T06:34:13.595Z,71.16
2019-03-05T06:35:13.581Z,71.47
2019-03-05T06:36:13.560Z,72.19
2019-03-05T06:37:13.544Z,71.57
2019-03-05T06:38:13.535Z,71.33
2019-03-05T06:39:13.533Z,71.64
2019-03-05T06:40:13.555Z,71.57
2019-03-05T06:41:13.500Z,71.78
2019-03-05T06:42:13.490Z,71.23
2019-03-05T06:43:13.485Z,70.75
2019-03-05T06:44:13.473Z,71.57
2019-03-05T06:45:13.464Z,71.16
2019-03-05T06:46:13.464Z,70.82
2019-03-05T06:47:13.442Z,71.47
2019-03-05T06:48:13.429Z,71.67
2019-03-05T06:49:13.419Z,71.16
2019-03-05T06:50:13.435Z,71.33
2019-03-05T06:51:13.405Z,71.12
2019-03-05T06:52:13.388Z,71.78
2019-03-05T06:53:13.370Z,71.16
2019-03-05T06:54:13.358Z,70.33
2019-03-05T06:55:13.353Z,70.30
2019-03-05T06:56:13.353Z,70.40
2019-03-05T06:57:13.328Z,70.09
2019-03-05T06:58:13.315Z,71.12
2019-03-05T06:59:13.355Z,70.82
2019-03-05T07:00:13.293Z,71.78
2019-03-05T07:01:13.321Z,71.26
2019-03-05T07:02:13.273Z,71.67
2019-03-05T07:03:13.272Z,71.57
2019-03-05T07:04:13.252Z,71.47
2019-03-05T07:05:13.240Z,71.64
2019-03-05T07:06:13.231Z,71.67
2019-03-05T07:07:13.261Z,71.23
2019-03-05T07:08:13.210Z,71.47
2019-03-05T07:09:13.199Z,71.23
2019-03-05T07:10:13.261Z,71.44
2019-03-05T07:11:13.174Z,71.54
2019-03-05T07:12:13.164Z,70.72
2019-03-05T07:13:13.184Z,70.61
2019-03-05T07:14:13.511Z,70.92
2019-03-05T07:15:13.129Z,70.06
2019-03-05T07:16:13.118Z,69.65
2019-03-05T07:17:13.106Z,69.13
2019-03-05T07:18:13.092Z,68.14
2019-03-05T07:19:13.098Z,68.04
2019-03-05T07:20:13.080Z,67.08
2019-03-05T07:21:13.055Z,66.77
2019-03-05T07:22:13.049Z,65.61
2019-03-05T07:23:13.059Z,65.19
2019-03-05T07:24:13.031Z,63.90
2019-03-05T07:25:13.014Z,63.43
2019-03-05T07:26:13.012Z,62.23
2019-03-05T07:27:12.995Z,61.91
2019-03-05T07:28:12.982Z,61.51
2019-03-05T07:29:12.990Z,62.53
2019-03-05T07:30:13.002Z,62.33
2019-03-05T07:31:12.950Z,62.90
2019-03-05T07:32:13.046Z,63.52
2019-03-05T07:33:12.931Z,63.72
2019-03-05T07:34:12.913Z,63.00
2019-03-05T07:35:12.905Z,62.05
2019-03-05T07:36:12.896Z,62.25
2019-03-05T07:37:12.893Z,62.70
2019-03-05T07:38:12.868Z,63.42
2019-03-05T07:39:12.857Z,64.27
2019-03-05T07:40:12.856Z,64.29
2019-03-05T07:41:12.833Z,63.99
2019-03-05T07:42:12.828Z,64.50
2019-03-05T07:43:12.813Z,63.37
2019-03-05T07:44:12.804Z,63.54
2019-03-05T07:45:12.828Z,63.68
2019-03-05T07:46:12.792Z,63.17
2019-03-05T07:47:12.776Z,63.89
2019-03-05T07:48:12.759Z,64.29
2019-03-05T07:49:12.765Z,64.02
2019-03-05T07:50:12.741Z,64.84
2019-03-05T07:51:12.780Z,64.84
2019-03-05T07:52:12.725Z,64.74
2019-03-05T07:53:12.700Z,64.84
2019-03-05T07:54:12.696Z,64.53
2019-03-05T07:55:13.951Z,64.64
2019-03-05T07:56:12.682Z,65.05
2019-03-05T07:57:12.661Z,64.53
2019-03-05T07:58:12.651Z,64.84
2019-03-05T07:59:12.642Z,64.74
2019-03-05T08:00:12.622Z,64.74
2019-03-05T08:01:21.768Z,65.22
2019-03-05T08:02:13.598Z,64.92
2019-03-05T08:03:12.596Z,65.74
2019-03-05T08:04:12.579Z,65.74
2019-03-05T08:05:12.585Z,65.74
2019-03-05T08:06:12.568Z,65.88
2019-03-05T08:07:12.561Z,66.83
2019-03-05T08:08:12.541Z,67.14
2019-03-05T08:09:12.528Z,66.73
2019-03-05T08:10:12.512Z,66.80
2019-03-05T08:11:12.546Z,66.70
2019-03-05T08:12:12.496Z,66.08
2019-03-05T08:13:12.487Z,66.60
2019-03-05T08:14:12.469Z,66.46
2019-03-05T08:15:12.465Z,66.15
2019-03-05T08:16:12.452Z,65.84
2019-03-05T08:17:12.452Z,65.40
2019-03-05T08:18:12.428Z,65.95
2019-03-05T08:19:12.416Z,65.33
2019-03-05T08:20:12.412Z,66.05
2019-03-05T08:21:12.397Z,65.95
2019-03-05T08:22:12.393Z,65.71
2019-03-05T08:23:12.372Z,65.40
2019-03-05T08:24:12.362Z,64.75
2019-03-05T08:25:12.348Z,63.28
2019-03-05T08:26:12.340Z,61.74
2019-03-05T08:27:12.412Z,62.56
2019-03-05T08:28:12.355Z,63.28
2019-03-05T08:29:12.336Z,63.79
2019-03-05T08:30:14.656Z,63.28
2019-03-05T08:31:12.288Z,62.46
2019-03-05T08:32:12.275Z,62.23
2019-03-05T08:33:12.269Z,62.23
2019-03-05T08:34:12.276Z,62.43
2019-03-05T08:35:12.241Z,62.43
2019-03-05T08:36:12.233Z,61.99
2019-03-05T08:37:13.488Z,61.88
2019-03-05T08:38:12.210Z,61.84
2019-03-05T08:39:12.257Z,62.66
2019-03-05T08:40:12.193Z,62.25
2019-03-05T08:41:12.173Z,61.66
2019-03-05T08:42:12.185Z,61.77
2019-03-05T08:43:12.146Z,62.28
2019-03-05T08:44:12.134Z,62.90
2019-03-05T08:45:12.143Z,61.63
2019-03-05T08:46:12.132Z,62.23
2019-03-05T08:47:12.111Z,61.81
2019-03-05T08:48:12.119Z,61.84
2019-03-05T08:49:12.087Z,62.35
2019-03-05T08:50:12.089Z,61.84
2019-03-05T08:51:12.083Z,61.53
2019-03-05T08:52:12.062Z,60.58
2019-03-05T08:53:12.075Z,60.78
2019-03-05T08:54:12.070Z,60.06
2019-03-05T08:55:12.044Z,60.81
2019-03-05T08:56:12.013Z,60.89
2019-03-05T08:57:12.001Z,60.81
2019-03-05T08:58:11.984Z,60.81
2019-03-05T08:59:11.970Z,61.40
2019-03-05T09:00:11.977Z,60.17
2019-03-05T09:01:11.994Z,60.91
2019-03-05T09:02:11.987Z,61.09
2019-03-05T09:03:11.932Z,59.89
2019-03-05T09:04:11.925Z,60.19
2019-03-05T09:05:11.922Z,60.19
2019-03-05T09:06:11.904Z,60.81
2019-03-05T09:07:11.902Z,61.02
2019-03-05T09:08:11.873Z,59.89
2019-03-05T09:09:11.862Z,60.19
2019-03-05T09:10:11.856Z,61.12
2019-03-05T09:11:11.845Z,60.71
2019-03-05T09:12:11.867Z,60.78
2019-03-05T09:13:11.824Z,59.24
2019-03-05T09:14:11.812Z,59.78
2019-03-05T09:15:11.805Z,59.27
2019-03-05T09:16:11.789Z,59.58
2019-03-05T09:17:11.781Z,59.89
2019-03-05T09:18:11.772Z,59.17
2019-03-05T09:19:11.758Z,59.89
2019-03-05T09:20:11.759Z,60.30
2019-03-05T09:21:11.740Z,59.27
2019-03-05T09:22:11.734Z,59.78
2019-03-05T09:23:11.715Z,59.68
2019-03-05T09:24:11.705Z,59.58
2019-03-05T09:25:11.692Z,59.37
2019-03-05T09:26:11.684Z,59.47
2019-03-05T09:27:11.684Z,59.78
2019-03-05T09:28:11.670Z,59.78
2019-03-05T09:29:11.670Z,59.86
2019-03-05T09:30:11.637Z,58.93
2019-03-05T09:31:11.626Z,58.65
2019-03-05T09:32:11.610Z,58.54
2019-03-05T09:33:11.625Z,59.47
2019-03-05T09:34:11.588Z,59.47
2019-03-05T09:35:11.582Z,58.47
2019-03-05T09:36:11.566Z,59.09
2019-03-05T09:37:11.571Z,58.98
2019-03-05T09:38:11.562Z,59.40
2019-03-05T09:39:11.541Z,58.37
2019-03-05T09:40:11.536Z,59.30
2019-03-05T09:41:11.513Z,59.50
2019-03-05T09:42:11.505Z,59.40
2019-03-05T09:43:11.513Z,59.81
2019-03-05T09:44:11.477Z,59.47
2019-03-05T09:45:11.467Z,58.26
2019-03-05T09:46:11.457Z,58.26
2019-03-05T09:47:11.444Z,58.14
2019-03-05T09:48:11.434Z,57.50
2019-03-05T09:49:11.431Z,58.52
2019-03-05T09:50:11.416Z,57.98
2019-03-05T09:51:11.400Z,57.34
2019-03-05T09:52:11.391Z,56.85
2019-03-05T09:53:11.379Z,57.01
2019-03-05T09:54:11.377Z,57.82
2019-03-05T09:55:11.367Z,59.17
2019-03-05T09:56:11.347Z,59.40
2019-03-05T09:57:11.337Z,58.89
2019-03-05T09:58:11.323Z,59.70
2019-03-05T09:59:11.350Z,59.53
2019-03-05T10:00:11.307Z,59.81
2019-03-05T10:01:11.290Z,59.74
2019-03-05T10:02:11.278Z,59.30
2019-03-05T10:03:11.273Z,59.19
2019-03-05T10:04:11.266Z,59.81
2019-03-05T10:05:11.559Z,59.30
2019-03-05T10:06:11.238Z,59.30
2019-03-05T10:07:18.587Z,59.50
2019-03-05T10:08:12.390Z,59.30
2019-03-05T10:09:11.207Z,59.17
2019-03-05T10:10:11.220Z,59.89
2019-03-05T10:11:11.218Z,59.24
2019-03-05T10:12:11.176Z,59.17
2019-03-05T10:13:13.224Z,58.26
2019-03-05T10:14:11.160Z,59.37
2019-03-05T10:15:11.152Z,59.09
2019-03-05T10:16:11.135Z,59.40
2019-03-05T10:17:11.114Z,58.86
2019-03-05T10:18:12.982Z,59.58
2019-03-05T10:19:11.100Z,59.14
2019-03-05T10:20:11.083Z,57.59
2019-03-05T10:21:12.082Z,57.39
2019-03-05T10:22:11.064Z,58.21
2019-03-05T10:23:11.045Z,58.52
2019-03-05T10:24:11.174Z,58.52
2019-03-05T10:25:12.880Z,58.52
2019-03-05T10:26:11.062Z,57.82
2019-03-05T10:27:11.008Z,58.14
2019-03-05T10:28:10.988Z,58.65
2019-03-05T10:29:10.983Z,58.75
2019-03-05T10:30:10.969Z,58.31
2019-03-05T10:31:10.957Z,58.52
2019-03-05T10:32:10.953Z,57.70
2019-03-05T10:33:10.933Z,57.82
2019-03-05T10:34:10.929Z,56.90
2019-03-05T10:35:10.920Z,57.73
2019-03-05T10:36:10.950Z,58.45
2019-03-05T10:37:14.694Z,58.75
2019-03-05T10:38:11.883Z,59.22
2019-03-05T10:39:10.873Z,58.29
2019-03-05T10:40:10.858Z,56.57
2019-03-05T10:41:10.854Z,56.87
2019-03-05T10:42:10.890Z,57.29
2019-03-05T10:43:10.830Z,56.64
2019-03-05T10:44:10.816Z,56.98
2019-03-05T10:45:10.803Z,57.39
2019-03-05T10:46:10.799Z,58.08
2019-03-05T10:47:10.823Z,57.26
2019-03-05T10:48:10.774Z,56.13
2019-03-05T10:49:10.772Z,56.85
2019-03-05T10:50:15.223Z,57.16
2019-03-05T10:51:11.733Z,56.85
2019-03-05T10:52:10.732Z,57.16
2019-03-05T10:53:10.722Z,56.44
2019-03-05T10:54:10.705Z,56.74
2019-03-05T10:55:10.689Z,56.64
2019-03-05T10:56:10.685Z,56.95
2019-03-05T10:57:10.666Z,56.44
2019-03-05T10:58:10.686Z,56.64
2019-03-05T10:59:10.657Z,56.74
2019-03-05T11:00:10.631Z,56.31
2019-03-05T11:01:10.624Z,56.74
2019-03-05T11:02:10.609Z,56.23
2019-03-05T11:03:10.603Z,57.16
2019-03-05T11:04:10.597Z,56.62
2019-03-05T11:05:10.576Z,56.21
2019-03-05T11:06:10.571Z,56.10
2019-03-05T11:07:10.568Z,56.82
2019-03-05T11:08:10.545Z,55.59
2019-03-05T11:09:10.552Z,55.62
2019-03-05T11:10:10.525Z,55.51
2019-03-05T11:11:13.747Z,56.05
2019-03-05T11:12:10.501Z,55.95
2019-03-05T11:13:10.489Z,56.05
2019-03-05T11:14:10.481Z,55.64
2019-03-05T11:15:10.470Z,56.15
2019-03-05T11:16:10.461Z,55.82
2019-03-05T11:17:10.464Z,56.23
2019-03-05T11:18:10.434Z,56.44
2019-03-05T11:19:10.426Z,56.00
2019-03-05T11:20:10.419Z,56.00
2019-03-05T11:21:10.400Z,56.02
2019-03-05T11:22:10.406Z,55.82
2019-03-05T11:23:11.730Z,56.13
2019-03-05T11:24:10.375Z,55.93
2019-03-05T11:25:10.374Z,56.13
2019-03-05T11:26:10.357Z,56.02
2019-03-05T11:27:10.338Z,56.13
2019-03-05T11:28:10.324Z,55.93
2019-03-05T11:29:10.316Z,54.92
2019-03-05T11:30:10.320Z,55.02
2019-03-05T11:31:10.300Z,55.02
2019-03-05T11:32:10.276Z,55.02
2019-03-05T11:33:10.273Z,55.02
2019-03-05T11:34:10.258Z,55.23
2019-03-05T11:35:10.247Z,54.72
2019-03-05T11:36:10.240Z,55.23
2019-03-05T11:37:10.220Z,55.23
2019-03-05T11:38:10.215Z,55.43
2019-03-05T11:39:10.197Z,55.43
2019-03-05T11:40:20.503Z,56.05
2019-03-05T11:41:11.187Z,54.72
2019-03-05T11:42:10.174Z,54.82
2019-03-05T11:43:10.161Z,55.10
2019-03-05T11:44:10.143Z,54.17
2019-03-05T11:45:11.718Z,54.15
2019-03-05T11:46:10.248Z,54.36
2019-03-05T11:47:10.114Z,53.23
2019-03-05T11:48:10.105Z,53.23
2019-03-05T11:49:10.087Z,54.02
2019-03-05T11:50:10.084Z,52.81
2019-03-05T11:51:10.072Z,53.53
2019-03-05T11:52:10.057Z,54.66
2019-03-05T11:53:10.040Z,54.87
2019-03-05T11:54:10.031Z,54.36
2019-03-05T11:55:10.024Z,54.25
2019-03-05T11:56:10.023Z,55.10
2019-03-05T11:57:09.996Z,55.00
2019-03-05T11:58:10.004Z,55.00
2019-03-05T11:59:09.982Z,55.72
2019-03-05T12:00:09.971Z,55.93
2019-03-05T12:01:09.963Z,56.23
2019-03-05T12:02:21.045Z,55.93
2019-03-05T12:03:10.930Z,55.79
2019-03-05T12:04:09.925Z,56.23
2019-03-05T12:05:09.914Z,56.44
2019-03-05T12:06:09.899Z,56.13
2019-03-05T12:07:09.923Z,55.79
2019-03-05T12:08:09.874Z,55.79
2019-03-05T12:09:09.875Z,56.41
2019-03-05T12:10:09.857Z,55.90
2019-03-05T12:11:09.846Z,55.93
2019-03-05T12:12:09.833Z,56.51
2019-03-05T12:13:09.822Z,56.21
2019-03-05T12:14:09.808Z,55.82
2019-03-05T12:15:09.804Z,56.13
2019-03-05T12:16:09.791Z,56.64
2019-03-05T12:17:09.778Z,56.74
2019-03-05T12:18:09.805Z,56.64
2019-03-05T12:19:09.755Z,57.54
2019-03-05T12:20:09.744Z,57.54
2019-03-05T12:21:09.728Z,57.36
2019-03-05T12:22:09.719Z,58.08
2019-03-05T12:23:10.426Z,57.67
2019-03-05T12:24:09.699Z,57.88
2019-03-05T12:25:09.684Z,58.39
2019-03-05T12:26:09.674Z,58.31
2019-03-05T12:27:09.661Z,58.52
2019-03-05T12:28:10.960Z,59.14
2019-03-05T12:29:09.649Z,58.52
2019-03-05T12:30:09.628Z,59.58
2019-03-05T12:31:09.624Z,62.15
2019-03-05T12:32:09.615Z,63.34
2019-03-05T12:33:09.605Z,65.19
2019-03-05T12:34:09.594Z,65.53
2019-03-05T12:35:09.584Z,67.90
2019-03-05T12:36:09.565Z,67.70
2019-03-05T12:37:09.568Z,68.32
2019-03-05T12:38:09.545Z,68.11
2019-03-05T12:39:09.542Z,68.93
2019-03-05T12:40:09.525Z,69.86
2019-03-05T12:41:09.506Z,69.55
2019-03-05T12:42:09.500Z,68.59
2019-03-05T12:43:09.483Z,67.05
2019-03-05T12:44:09.480Z,67.25
2019-03-05T12:45:09.495Z,66.74
2019-03-05T12:46:09.456Z,67.12
2019-03-05T12:47:09.444Z,64.75
2019-03-05T12:48:09.435Z,64.27
2019-03-05T12:49:09.419Z,64.75
2019-03-05T12:50:09.421Z,63.90
2019-03-05T12:51:09.402Z,64.83
2019-03-05T12:52:09.396Z,64.93